Impacts TAF Board INFO
FOR SITUATIONAL AWARENESS. NOT TO BE USED FOR FLIGHT PLANNING PURPOSES.
IDs:

KATL - Atlanta/Hartsfield-J, GA, US

Issued at 2338 UTC 30 Apr 2017
Updated at 0018 UTC 01 May 2017
Potential Impact None Slight Moderate High
Time2352Z 01/01Z 01/02Z 01/03Z 01/04Z 01/05Z 01/06Z 01/07Z 01/08Z 01/09Z 01/10Z 01/11Z 01/12Z 01/13Z>>
Type OBS PRVL
  [TEMP]  
PRVL
  [TEMP]  
PRVL PRVL PRVL PRVL PRVL PRVL PRVL PRVL
  [PRB30]  
PRVL
  [PRB30]  
PRVL PRVL
VIS 10 >6
  [5]  
>6
  [5]  
>6 >6 >6 >6 >6 >6 >6 5
  [3]  
5
  [3]  
4 4
CIG 200 45
  [25]  
45
  [25]  
250 250 250 250 250 12 12 12
  [12]  
12
  [12]  
12 12
Cover BKN BKN
  [BKN]  
BKN
  [BKN]  
BKN BKN BKN BKN BKN BKN BKN OVC
  [OVC]  
OVC
  [OVC]  
BKN BKN
FltCat VFR VFR
  [MVFR]  
VFR
  [MVFR]  
VFR VFR VFR VFR VFR MVFR MVFR MVFR
  [MVFR]  
MVFR
  [MVFR]  
MVFR MVFR
WX -- --
  [-SHRA]  
--
  [-SHRA]  
-- -- -- -- -- VCSH VCSH -RA BR
  [TSRA]  
-RA BR
  [TSRA]  
-TSRA -TSRA
WDir 150 160
[160]
160
[160]
170 170 170 170 170 170 170 190
[190]
190
[190]
190 190
WSpd 7 10
  [10]  
10
  [10]  
11 11 11 11 11 12 12 12
  [12]  
12
  [12]  
12 12
WGst -- --
  [--]  
--
  [--]  
-- -- -- -- -- 20 20 25
  [25]  
25
  [25]  
25 25

Raw TAF
KATL 302338Z 0100/0206 16010KT P6SM BKN045
  TEMPO 0101/0103 5SM -SHRA BKN025
  FM010300 17011KT P6SM SCT015 SCT050 BKN250
  FM010800 17012G20KT P6SM VCSH BKN012 BKN020
  FM011000 19012G25KT 5SM -RA BR BKN012 OVC020
  PROB30 0110/0112 3SM TSRA BKN012CB OVC022
  FM011200 19012G25KT 4SM -TSRA SCT008 BKN012CB
  FM011500 24012G25KT P6SM VCSH SCT018 BKN030
  FM011700 23015G25KT P6SM SCT050
  FM020000 26009KT P6SM SKC


Raw METAR
KATL 302352Z 15007KT 10SM FEW044 SCT075 BKN200 BKN250 26/18 A3000 RMK AO2 SLP149 ACC SW-W T02610178 10283 20261 56016
KATL 302252Z 16008KT 10SM FEW046 FEW075 BKN200 BKN250 27/17 A3001 RMK AO2 SLP154 MDT CU S T02720172
KATL 302152Z 18010KT 10SM FEW048 FEW080 BKN200 BKN250 27/17 A3003 RMK AO2 SLP159 ACC SW T02720167

METAR Board
Radar Display
Forecast Discussion

FOR SITUATIONAL AWARENESS. NOT TO BE USED FOR FLIGHT PLANNING PURPOSES.

Page loaded:  00:18 UTC  |   05:18 PM Pacific  |   06:18 PM Mountain  |   07:18 PM Central  |   08:18 PM Eastern

 

ADVISORIES

FORECASTS

FORECASTS

OBSERVATIONS

USER TOOLS

ABOUT US